createdAt,value
2019-04-27T00:00:14.321Z,8.93
2019-04-27T00:03:02.241Z,9.33
2019-04-27T00:05:32.431Z,8.63
2019-04-27T00:08:15.629Z,9.10
2019-04-27T00:10:53.260Z,8.50
2019-04-27T00:13:22.939Z,9.23
2019-04-27T00:15:56.578Z,9.27
2019-04-27T00:18:45.464Z,8.80
2019-04-27T00:21:27.206Z,8.63
2019-04-27T00:23:56.027Z,9.80
2019-04-27T00:26:25.101Z,10.23
2019-04-27T00:28:53.953Z,10.13
2019-04-27T00:31:23.472Z,8.83
2019-04-27T00:33:53.588Z,10.37
2019-04-27T00:36:24.139Z,9.20
2019-04-27T00:38:54.576Z,8.83
2019-04-27T00:41:24.947Z,9.87
2019-04-27T00:43:53.753Z,9.03
2019-04-27T00:46:22.925Z,9.50
2019-04-27T00:48:53.295Z,10.00
2019-04-27T00:51:23.157Z,8.80
2019-04-27T00:53:53.555Z,8.37
2019-04-27T00:56:33.831Z,9.73
2019-04-27T00:59:19.266Z,9.00
2019-04-27T01:01:55.382Z,9.33
2019-04-27T01:04:25.887Z,9.67
2019-04-27T01:06:54.700Z,9.03
2019-04-27T01:09:24.198Z,9.23
2019-04-27T01:11:53.472Z,8.73
2019-04-27T01:14:25.345Z,9.87
2019-04-27T01:16:54.191Z,9.60
2019-04-27T01:19:24.813Z,9.33
2019-04-27T01:21:53.552Z,10.00
2019-04-27T01:24:25.341Z,8.80
2019-04-27T01:27:10.794Z,8.37
2019-04-27T01:29:58.908Z,9.50
2019-04-27T01:32:29.183Z,9.00
2019-04-27T01:34:59.194Z,8.73
2019-04-27T01:37:28.573Z,9.93
2019-04-27T01:39:59.044Z,9.17
2019-04-27T01:42:29.395Z,8.70
2019-04-27T01:44:59.513Z,8.57
2019-04-27T01:47:28.916Z,8.70
2019-04-27T01:49:58.512Z,8.67
2019-04-27T01:52:27.314Z,8.87
2019-04-27T01:54:56.105Z,8.67
2019-04-27T01:57:25.074Z,9.47
2019-04-27T01:59:53.891Z,8.10
2019-04-27T02:02:24.286Z,9.57
2019-04-27T02:05:10.930Z,10.40
2019-04-27T02:07:40.388Z,9.07
2019-04-27T02:10:10.202Z,9.17
2019-04-27T02:12:39.712Z,8.43
2019-04-27T02:15:10.553Z,9.63
2019-04-27T02:17:39.476Z,9.07
2019-04-27T02:20:09.757Z,8.80
2019-04-27T02:22:38.617Z,9.57
2019-04-27T02:25:11.161Z,9.53
2019-04-27T02:27:41.555Z,10.90
2019-04-27T02:30:12.463Z,9.60
2019-04-27T02:32:45.830Z,9.10
2019-04-27T02:35:14.729Z,9.53
2019-04-27T02:37:43.406Z,9.87
2019-04-27T02:40:39.759Z,9.17
2019-04-27T02:43:10.785Z,9.33
2019-04-27T02:45:40.310Z,9.30
2019-04-27T02:48:10.415Z,9.00
2019-04-27T02:50:39.960Z,9.47
2019-04-27T02:53:11.145Z,9.87
2019-04-27T02:55:39.855Z,9.83
2019-04-27T02:58:12.277Z,10.20
2019-04-27T03:00:39.971Z,10.20
2019-04-27T03:03:10.732Z,10.43
2019-04-27T03:05:40.112Z,10.47
2019-04-27T03:08:10.241Z,9.33
2019-04-27T03:10:40.239Z,9.33
2019-04-27T03:13:11.217Z,9.67
2019-04-27T03:15:50.244Z,9.00
2019-04-27T03:18:20.620Z,10.37
2019-04-27T03:20:51.176Z,9.40
2019-04-27T03:23:20.121Z,9.83
2019-04-27T03:25:50.726Z,9.33
2019-04-27T03:28:20.178Z,9.27
2019-04-27T03:30:52.191Z,9.03
2019-04-27T03:33:22.335Z,9.20
2019-04-27T03:35:52.486Z,9.53
2019-04-27T03:38:20.735Z,10.20
2019-04-27T03:40:50.716Z,10.47
2019-04-27T03:43:22.000Z,9.43
2019-04-27T03:45:52.396Z,9.13
2019-04-27T03:48:21.474Z,9.53
2019-04-27T03:50:51.876Z,9.77
2019-04-27T03:53:44.603Z,10.07
2019-04-27T03:56:23.723Z,9.00
2019-04-27T03:59:06.027Z,10.10
2019-04-27T04:01:34.814Z,9.20
2019-04-27T04:04:03.553Z,10.30
2019-04-27T04:06:32.462Z,10.40
2019-04-27T04:09:01.497Z,10.27
2019-04-27T04:11:34.965Z,10.70
2019-04-27T04:14:05.435Z,9.47
2019-04-27T04:16:35.798Z,10.67
2019-04-27T04:19:06.512Z,9.20
2019-04-27T04:21:35.580Z,9.93
2019-04-27T04:24:04.413Z,11.03
2019-04-27T04:26:33.286Z,10.13
2019-04-27T04:29:02.176Z,10.37
2019-04-27T04:31:33.237Z,11.23
2019-04-27T04:34:01.651Z,11.27
2019-04-27T04:36:30.547Z,9.63
2019-04-27T04:39:00.489Z,11.00
2019-04-27T04:41:43.231Z,10.90
2019-04-27T04:44:12.476Z,10.80
2019-04-27T04:47:00.094Z,11.07
2019-04-27T04:49:29.610Z,11.07
2019-04-27T04:51:59.459Z,11.50
2019-04-27T04:54:29.999Z,11.70
2019-04-27T04:56:59.515Z,11.37
2019-04-27T04:59:29.206Z,11.40
2019-04-27T05:02:00.257Z,11.80
2019-04-27T05:04:29.186Z,11.17
2019-04-27T05:06:59.223Z,11.40
2019-04-27T05:09:29.533Z,11.40
2019-04-27T05:12:01.513Z,10.40
2019-04-27T05:14:30.416Z,10.73
2019-04-27T05:16:59.316Z,11.50
2019-04-27T05:19:28.851Z,11.70
2019-04-27T05:21:59.307Z,11.67
2019-04-27T05:24:29.274Z,10.97
2019-04-27T05:26:59.019Z,11.10
2019-04-27T05:29:29.272Z,10.70
2019-04-27T05:31:59.222Z,10.73
2019-04-27T05:34:29.420Z,11.03
2019-04-27T05:36:59.375Z,10.93
2019-04-27T05:39:29.964Z,10.47
2019-04-27T05:41:59.742Z,10.70
2019-04-27T05:44:33.299Z,10.87
2019-04-27T05:47:11.745Z,10.53
2019-04-27T05:49:44.537Z,10.90
2019-04-27T05:52:29.633Z,11.27
2019-04-27T05:54:59.309Z,10.37
2019-04-27T05:57:31.246Z,10.53
2019-04-27T06:00:02.201Z,10.40
2019-04-27T06:02:30.527Z,11.60
2019-04-27T06:05:00.001Z,10.53
2019-04-27T06:07:29.812Z,10.83
2019-04-27T06:09:59.844Z,11.37
2019-04-27T06:12:29.681Z,10.87
2019-04-27T06:14:59.884Z,11.67
2019-04-27T06:17:29.883Z,10.87
2019-04-27T06:19:59.629Z,10.17
2019-04-27T06:22:29.269Z,10.17
2019-04-27T06:25:00.123Z,11.57
2019-04-27T06:27:30.623Z,10.53
2019-04-27T06:29:59.549Z,11.00
2019-04-27T06:32:29.602Z,10.73
2019-04-27T06:34:58.968Z,11.03
2019-04-27T06:37:29.306Z,11.07
2019-04-27T06:39:59.715Z,11.03
2019-04-27T06:42:29.730Z,10.97
2019-04-27T06:44:59.899Z,11.10
2019-04-27T06:47:29.595Z,11.37
2019-04-27T06:49:58.771Z,10.53
2019-04-27T06:52:29.229Z,10.97
2019-04-27T06:54:58.139Z,10.83
2019-04-27T06:57:26.953Z,10.30
2019-04-27T06:59:55.913Z,10.93
2019-04-27T07:02:24.746Z,10.63
2019-04-27T07:04:53.573Z,9.80
2019-04-27T07:07:22.319Z,10.00
2019-04-27T07:09:51.077Z,9.97
2019-04-27T07:12:19.919Z,10.43
2019-04-27T07:14:52.915Z,10.77
2019-04-27T07:17:19.270Z,10.07
2019-04-27T07:19:49.717Z,9.83
2019-04-27T07:22:20.090Z,10.20
2019-04-27T07:24:49.175Z,9.90
2019-04-27T07:27:19.146Z,8.90
2019-04-27T07:29:49.491Z,9.37
2019-04-27T07:32:19.246Z,9.30
2019-04-27T07:34:49.639Z,10.00
2019-04-27T07:37:19.569Z,9.20
2019-04-27T07:39:49.169Z,10.10
2019-04-27T07:42:20.509Z,8.70
2019-04-27T07:44:50.144Z,9.17
2019-04-27T07:47:20.506Z,9.27
2019-04-27T07:49:50.549Z,9.57
2019-04-27T07:52:20.602Z,9.37
2019-04-27T07:54:49.593Z,8.43
2019-04-27T07:57:19.805Z,9.57
2019-04-27T07:59:50.094Z,9.33
2019-04-27T08:02:19.222Z,10.00
2019-04-27T08:04:50.312Z,9.83
2019-04-27T08:07:19.642Z,9.60
2019-04-27T08:09:49.676Z,8.80
2019-04-27T08:12:20.736Z,9.20
2019-04-27T08:14:49.235Z,9.53
2019-04-27T08:17:19.157Z,8.23
2019-04-27T08:19:49.606Z,8.90
2019-04-27T08:22:19.388Z,9.80
2019-04-27T08:24:49.600Z,8.27
2019-04-27T08:27:20.667Z,9.53
2019-04-27T08:29:51.053Z,8.90
2019-04-27T08:32:21.481Z,9.00
2019-04-27T08:34:50.310Z,7.77
2019-04-27T08:37:19.046Z,7.57
2019-04-27T08:39:49.421Z,7.80
2019-04-27T08:42:19.424Z,7.93
2019-04-27T08:44:49.718Z,8.40
2019-04-27T08:47:19.516Z,8.30
2019-04-27T08:49:49.123Z,8.17
2019-04-27T08:52:19.398Z,8.30
2019-04-27T08:54:49.328Z,7.63
2019-04-27T08:57:18.951Z,7.93
2019-04-27T08:59:49.275Z,8.50
2019-04-27T09:02:19.615Z,7.93
2019-04-27T09:04:49.528Z,8.13
2019-04-27T09:07:31.961Z,7.77
2019-04-27T09:10:02.378Z,7.40
2019-04-27T09:12:50.081Z,8.37
2019-04-27T09:15:39.171Z,8.03
2019-04-27T09:18:08.990Z,7.40
2019-04-27T09:20:39.580Z,8.33
2019-04-27T09:23:09.859Z,7.03
2019-04-27T09:25:39.624Z,8.43
2019-04-27T09:28:08.865Z,8.03
2019-04-27T09:30:39.302Z,7.43
2019-04-27T09:33:08.292Z,7.90
2019-04-27T09:35:37.125Z,7.40
2019-04-27T09:38:07.057Z,7.73
2019-04-27T09:40:36.154Z,7.97
2019-04-27T09:43:04.892Z,8.00
2019-04-27T09:45:33.697Z,8.23
2019-04-27T09:48:06.661Z,7.60
2019-04-27T09:50:36.064Z,7.37
2019-04-27T09:53:06.409Z,7.20
2019-04-27T09:55:36.904Z,8.57
2019-04-27T09:58:05.866Z,7.27
2019-04-27T10:00:36.318Z,7.53
2019-04-27T10:03:06.614Z,7.87
2019-04-27T10:05:36.768Z,7.70
2019-04-27T10:08:06.191Z,7.30
2019-04-27T10:10:36.955Z,7.67
2019-04-27T10:13:07.021Z,8.33
2019-04-27T10:15:35.946Z,6.60
2019-04-27T10:18:06.122Z,6.93
2019-04-27T10:20:39.041Z,7.40
2019-04-27T10:23:06.210Z,6.70
2019-04-27T10:25:37.231Z,7.17
2019-04-27T10:28:06.794Z,6.77
2019-04-27T10:30:36.016Z,6.83
2019-04-27T10:33:07.716Z,7.90
2019-04-27T10:35:36.316Z,7.60
2019-04-27T10:38:05.302Z,7.43
2019-04-27T10:40:34.152Z,8.67
2019-04-27T10:43:03.043Z,7.10
2019-04-27T10:45:31.846Z,7.40
2019-04-27T10:48:00.664Z,7.63
2019-04-27T10:50:29.538Z,7.07
2019-04-27T10:52:59.295Z,6.90
2019-04-27T10:55:28.334Z,6.80
2019-04-27T10:57:57.152Z,7.50
2019-04-27T11:00:27.870Z,7.20
2019-04-27T11:02:58.420Z,6.73
2019-04-27T11:05:31.265Z,6.50
2019-04-27T11:08:00.449Z,7.30
2019-04-27T11:10:29.506Z,7.70
2019-04-27T11:12:58.290Z,6.33
2019-04-27T11:15:27.108Z,7.17
2019-04-27T11:17:56.274Z,8.60
2019-04-27T11:20:27.480Z,6.57
2019-04-27T11:23:06.702Z,6.73
2019-04-27T11:25:26.418Z,6.80
2019-04-27T11:27:55.929Z,6.83
2019-04-27T11:30:25.732Z,6.33
2019-04-27T11:32:58.943Z,6.80
2019-04-27T11:35:41.434Z,5.83
2019-04-27T11:38:10.225Z,6.40
2019-04-27T11:40:38.995Z,6.40
2019-04-27T11:43:07.834Z,7.13
2019-04-27T11:45:36.849Z,7.37
2019-04-27T11:48:05.879Z,6.50
2019-04-27T11:50:35.806Z,5.87
2019-04-27T11:53:06.203Z,5.40
2019-04-27T11:55:35.214Z,5.90
2019-04-27T11:58:04.047Z,6.00
2019-04-27T12:00:33.051Z,5.87
2019-04-27T12:03:01.916Z,5.20
2019-04-27T12:05:31.252Z,6.07
2019-04-27T12:08:01.413Z,5.87
2019-04-27T12:10:30.229Z,7.53
2019-04-27T12:12:59.038Z,5.40
2019-04-27T12:15:27.847Z,6.87
2019-04-27T12:17:56.602Z,6.93
2019-04-27T12:20:25.898Z,6.10
2019-04-27T12:22:54.865Z,5.77
2019-04-27T12:25:23.662Z,6.47
2019-04-27T12:28:10.376Z,6.33
2019-04-27T12:30:40.794Z,6.63
2019-04-27T12:33:10.115Z,5.80
2019-04-27T12:35:38.930Z,6.37
2019-04-27T12:38:07.746Z,7.03
2019-04-27T12:40:36.730Z,6.37
2019-04-27T12:43:05.596Z,6.17
2019-04-27T12:45:36.949Z,6.33
2019-04-27T12:48:06.771Z,5.73
2019-04-27T12:50:36.185Z,5.97
2019-04-27T12:53:18.808Z,6.00
2019-04-27T12:55:49.209Z,6.13
2019-04-27T12:58:22.737Z,5.53
2019-04-27T13:00:59.484Z,6.97
2019-04-27T13:03:28.312Z,7.60
2019-04-27T13:05:57.137Z,6.43
2019-04-27T13:08:26.100Z,6.10
2019-04-27T13:10:55.709Z,6.40
2019-04-27T13:13:26.650Z,7.07
2019-04-27T13:15:56.286Z,6.67
2019-04-27T13:18:25.838Z,6.43
2019-04-27T13:20:54.732Z,6.17
2019-04-27T13:23:23.553Z,5.23
2019-04-27T13:25:52.329Z,5.87
2019-04-27T13:28:21.167Z,5.90
2019-04-27T13:30:49.982Z,5.93
2019-04-27T13:33:18.946Z,6.00
2019-04-27T13:35:47.748Z,5.70
2019-04-27T13:38:18.089Z,5.80
2019-04-27T13:40:48.731Z,5.60
2019-04-27T13:43:19.092Z,6.20
2019-04-27T13:46:08.114Z,5.53
2019-04-27T13:48:56.270Z,5.67
2019-04-27T13:51:32.906Z,6.10
2019-04-27T13:54:14.106Z,7.00
2019-04-27T13:56:32.469Z,6.60
2019-04-27T13:59:03.251Z,6.90
2019-04-27T14:01:32.398Z,7.23
2019-04-27T14:04:01.251Z,7.00
2019-04-27T14:06:30.194Z,6.40
2019-04-27T14:08:58.943Z,6.87
2019-04-27T14:11:29.038Z,6.50
2019-04-27T14:13:57.971Z,6.33
2019-04-27T14:16:26.801Z,6.57
2019-04-27T14:18:55.556Z,6.80
2019-04-27T14:21:24.417Z,6.30
2019-04-27T14:23:53.259Z,6.07
2019-04-27T14:26:21.976Z,7.20
2019-04-27T14:28:50.746Z,5.63
2019-04-27T14:31:19.572Z,5.90
2019-04-27T14:33:48.579Z,6.13
2019-04-27T14:36:18.278Z,5.60
2019-04-27T14:38:47.944Z,5.93
2019-04-27T14:41:19.133Z,6.40
2019-04-27T14:43:49.924Z,6.37
2019-04-27T14:46:18.782Z,6.20
2019-04-27T14:48:47.644Z,6.03
2019-04-27T14:51:16.388Z,5.87
2019-04-27T14:53:45.142Z,5.97
2019-04-27T14:56:13.980Z,6.53
2019-04-27T14:58:42.801Z,6.20
2019-04-27T15:01:11.648Z,5.97
2019-04-27T15:03:40.376Z,6.33
2019-04-27T15:06:09.182Z,6.00
2019-04-27T15:08:38.379Z,5.50
2019-04-27T15:11:10.347Z,5.40
2019-04-27T15:13:43.049Z,5.07
2019-04-27T15:16:09.319Z,5.80
2019-04-27T15:18:43.528Z,6.23
2019-04-27T15:21:10.425Z,5.40
2019-04-27T15:23:41.270Z,6.00
2019-04-27T15:26:10.466Z,5.70
2019-04-27T15:28:44.678Z,7.37
2019-04-27T15:31:22.291Z,5.30
2019-04-27T15:33:53.308Z,5.53
2019-04-27T15:36:22.830Z,5.27
2019-04-27T15:38:53.790Z,5.40
2019-04-27T15:41:24.449Z,5.40
2019-04-27T15:43:54.729Z,5.53
2019-04-27T15:46:23.544Z,5.33
2019-04-27T15:48:54.329Z,5.10
2019-04-27T15:51:22.873Z,5.70
2019-04-27T15:53:53.941Z,5.10
2019-04-27T15:56:22.107Z,5.30
2019-04-27T15:58:50.905Z,5.27
2019-04-27T16:01:19.704Z,5.07
2019-04-27T16:03:48.524Z,4.93
2019-04-27T16:06:19.052Z,5.80
2019-04-27T16:08:49.185Z,4.73
2019-04-27T16:11:19.795Z,4.33
2019-04-27T16:13:48.895Z,5.03
2019-04-27T16:16:19.140Z,5.03
2019-04-27T16:18:49.105Z,4.87
2019-04-27T16:21:41.579Z,4.80
2019-04-27T16:24:08.490Z,5.63
2019-04-27T16:26:38.743Z,5.60
2019-04-27T16:29:08.255Z,5.60
2019-04-27T16:31:38.501Z,5.13
2019-04-27T16:34:08.310Z,5.00
2019-04-27T16:36:43.426Z,5.03
2019-04-27T16:39:09.997Z,5.27
2019-04-27T16:41:41.803Z,5.03
2019-04-27T16:44:10.850Z,4.83
2019-04-27T16:46:42.917Z,5.53
2019-04-27T16:49:14.730Z,5.13
2019-04-27T16:51:40.902Z,4.97
2019-04-27T16:54:11.163Z,5.40
2019-04-27T16:56:40.024Z,4.93
2019-04-27T16:59:33.903Z,5.27
2019-04-27T17:01:41.732Z,5.43
2019-04-27T17:04:11.306Z,5.33
2019-04-27T17:06:46.006Z,5.43
2019-04-27T17:09:11.782Z,5.90
2019-04-27T17:11:43.656Z,5.30
2019-04-27T17:14:15.764Z,5.97
2019-04-27T17:16:51.989Z,6.57
2019-04-27T17:19:28.661Z,4.83
2019-04-27T17:21:58.543Z,5.63
2019-04-27T17:24:41.919Z,5.20
2019-04-27T17:27:05.939Z,5.73
2019-04-27T17:29:38.525Z,5.63
2019-04-27T17:32:11.168Z,6.13
2019-04-27T17:34:39.980Z,5.67
2019-04-27T17:37:08.888Z,5.67
2019-04-27T17:39:38.743Z,5.43
2019-04-27T17:42:29.729Z,6.63
2019-04-27T17:45:00.378Z,5.23
2019-04-27T17:47:29.786Z,6.53
2019-04-27T17:49:58.427Z,6.03
2019-04-27T17:52:27.264Z,6.57
2019-04-27T17:54:56.738Z,6.87
2019-04-27T17:57:26.508Z,6.20
2019-04-27T18:00:00.190Z,6.30
2019-04-27T18:02:29.207Z,6.13
2019-04-27T18:04:58.841Z,5.97
2019-04-27T18:07:29.995Z,6.60
2019-04-27T18:09:58.551Z,6.53
2019-04-27T18:12:28.489Z,5.93
2019-04-27T18:14:58.162Z,6.60
2019-04-27T18:17:28.739Z,5.93
2019-04-27T18:19:59.591Z,6.87
2019-04-27T18:22:32.195Z,5.97
2019-04-27T18:25:06.289Z,6.57
2019-04-27T18:27:43.857Z,6.67
2019-04-27T18:30:15.092Z,5.97
2019-04-27T18:32:43.960Z,5.73
2019-04-27T18:35:12.766Z,6.07
2019-04-27T18:37:41.702Z,6.63
2019-04-27T18:40:10.477Z,6.30
2019-04-27T18:42:39.318Z,6.27
2019-04-27T18:45:08.519Z,6.97
2019-04-27T18:47:40.536Z,7.20
2019-04-27T18:50:14.694Z,6.50
2019-04-27T18:52:47.444Z,6.10
2019-04-27T18:55:16.870Z,6.40
2019-04-27T18:57:45.883Z,5.97
2019-04-27T19:00:16.741Z,6.37
2019-04-27T19:02:45.569Z,6.23
2019-04-27T19:05:14.483Z,7.30
2019-04-27T19:07:43.304Z,6.43
2019-04-27T19:10:19.245Z,6.27
2019-04-27T19:12:48.681Z,6.17
2019-04-27T19:15:18.328Z,7.20
2019-04-27T19:17:48.894Z,6.67
2019-04-27T19:20:18.658Z,7.00
2019-04-27T19:23:08.733Z,6.27
2019-04-27T19:25:48.289Z,7.30
2019-04-27T19:28:28.267Z,6.67
2019-04-27T19:31:02.060Z,7.20
2019-04-27T19:33:31.086Z,6.73
2019-04-27T19:35:59.929Z,6.03
2019-04-27T19:38:29.029Z,6.77
2019-04-27T19:40:57.859Z,7.27
2019-04-27T19:43:28.427Z,6.87
2019-04-27T19:45:58.431Z,6.57
2019-04-27T19:48:28.655Z,6.30
2019-04-27T19:50:57.569Z,6.43
2019-04-27T19:53:26.378Z,6.03
2019-04-27T19:56:04.464Z,7.33
2019-04-27T19:58:35.069Z,7.17
2019-04-27T20:01:14.544Z,7.33
2019-04-27T20:03:47.290Z,6.27
2019-04-27T20:06:16.135Z,6.27
2019-04-27T20:08:49.301Z,6.27
2019-04-27T20:11:18.088Z,6.23
2019-04-27T20:13:46.906Z,7.67
2019-04-27T20:16:15.723Z,7.67
2019-04-27T20:18:44.445Z,6.73
2019-04-27T20:21:13.304Z,7.10
2019-04-27T20:23:42.059Z,6.47
2019-04-27T20:26:10.882Z,7.07
2019-04-27T20:28:41.324Z,6.90
2019-04-27T20:31:10.333Z,7.07
2019-04-27T20:33:39.130Z,7.23
2019-04-27T20:36:07.931Z,6.90
2019-04-27T20:38:36.843Z,7.13
2019-04-27T20:41:05.680Z,6.73
2019-04-27T20:43:34.579Z,6.50
2019-04-27T20:46:03.413Z,6.77
2019-04-27T20:48:32.173Z,6.53
2019-04-27T20:51:01.383Z,7.13
2019-04-27T20:53:37.941Z,6.77
2019-04-27T20:56:25.964Z,6.83
2019-04-27T20:58:54.766Z,6.80
2019-04-27T21:01:23.569Z,7.13
2019-04-27T21:03:53.969Z,7.40
2019-04-27T21:06:29.847Z,6.43
2019-04-27T21:08:58.682Z,6.73
2019-04-27T21:11:30.768Z,5.83
2019-04-27T21:14:01.025Z,6.57
2019-04-27T21:16:31.358Z,6.27
2019-04-27T21:19:01.793Z,6.67
2019-04-27T21:21:31.051Z,6.47
2019-04-27T21:23:59.782Z,6.50
2019-04-27T21:26:28.610Z,6.37
2019-04-27T21:28:57.439Z,5.97
2019-04-27T21:31:26.275Z,6.93
2019-04-27T21:33:55.117Z,6.67
2019-04-27T21:36:23.901Z,6.93
2019-04-27T21:38:52.835Z,6.70
2019-04-27T21:41:22.722Z,7.23
2019-04-27T21:43:51.559Z,6.70
2019-04-27T21:46:21.037Z,6.83
2019-04-27T21:48:50.829Z,7.30
2019-04-27T21:51:19.603Z,5.77
2019-04-27T21:54:02.196Z,6.73
2019-04-27T21:56:31.330Z,6.63
2019-04-27T21:59:01.004Z,6.70
2019-04-27T22:01:31.948Z,8.23
2019-04-27T22:04:01.141Z,7.03
2019-04-27T22:06:29.899Z,7.33
2019-04-27T22:08:58.729Z,7.10
2019-04-27T22:11:27.491Z,7.27
2019-04-27T22:13:56.224Z,6.90
2019-04-27T22:16:25.081Z,7.40
2019-04-27T22:18:53.888Z,7.27
2019-04-27T22:21:22.724Z,7.70
2019-04-27T22:23:55.571Z,7.63
2019-04-27T22:26:24.402Z,6.73
2019-04-27T22:28:53.173Z,7.17
2019-04-27T22:31:21.998Z,6.80
2019-04-27T22:33:54.234Z,7.77
2019-04-27T22:36:21.306Z,6.73
2019-04-27T22:38:51.636Z,7.37
2019-04-27T22:41:22.261Z,7.27
2019-04-27T22:43:58.677Z,7.13
2019-04-27T22:46:30.747Z,7.40
2019-04-27T22:48:59.684Z,7.97
2019-04-27T22:51:28.498Z,7.13
2019-04-27T22:53:57.329Z,7.10
2019-04-27T22:56:26.200Z,7.20
2019-04-27T22:59:14.539Z,7.03
2019-04-27T23:01:44.922Z,7.40
2019-04-27T23:04:34.622Z,7.47
2019-04-27T23:07:03.556Z,7.70
2019-04-27T23:09:32.533Z,8.00
2019-04-27T23:12:01.857Z,7.97
2019-04-27T23:14:31.283Z,7.07
2019-04-27T23:17:03.181Z,7.03
2019-04-27T23:19:32.161Z,7.83
2019-04-27T23:22:01.185Z,7.43
2019-04-27T23:24:31.089Z,7.13
2019-04-27T23:27:03.225Z,7.73
2019-04-27T23:29:30.624Z,7.70
2019-04-27T23:32:02.421Z,8.20
2019-04-27T23:34:31.592Z,8.33
2019-04-27T23:37:00.585Z,7.43
2019-04-27T23:39:29.404Z,8.53
2019-04-27T23:41:58.366Z,8.03
2019-04-27T23:44:27.163Z,8.37
2019-04-27T23:46:55.902Z,8.23
2019-04-27T23:49:24.710Z,8.70
2019-04-27T23:51:55.121Z,8.47
2019-04-27T23:54:23.946Z,8.03
2019-04-27T23:56:52.767Z,8.17
2019-04-27T23:59:25.095Z,8.80
